sensor_id;sensor_type;location;lat;lon;timestamp;pressure;altitude;pressure_sealevel;temperature;humidity
5952;BME280;3001;42.622;23.194;2024-02-26T00:01:12;90845.69;;;18.05;47.63
5952;BME280;3001;42.622;23.194;2024-02-26T00:03:39;90833.56;;;17.97;47.53
5952;BME280;3001;42.622;23.194;2024-02-26T00:06:07;90834.03;;;18.03;47.50
5952;BME280;3001;42.622;23.194;2024-02-26T00:08:34;90825.63;;;17.94;47.75
5952;BME280;3001;42.622;23.194;2024-02-26T00:11:00;90821.41;;;17.86;48.02
5952;BME280;3001;42.622;23.194;2024-02-26T00:13:27;90820.38;;;17.94;48.30
5952;BME280;3001;42.622;23.194;2024-02-26T00:15:54;90810.81;;;18.08;48.45
5952;BME280;3001;42.622;23.194;2024-02-26T00:18:22;90816.13;;;18.12;49.02
5952;BME280;3001;42.622;23.194;2024-02-26T00:20:48;90805.13;;;18.06;49.64
5952;BME280;3001;42.622;23.194;2024-02-26T00:23:15;90810.69;;;18.27;48.91
5952;BME280;3001;42.622;23.194;2024-02-26T00:25:42;90809.41;;;18.44;48.30
5952;BME280;3001;42.622;23.194;2024-02-26T00:28:10;90808.13;;;18.64;47.92
5952;BME280;3001;42.622;23.194;2024-02-26T00:30:38;90801.31;;;18.59;48.15
5952;BME280;3001;42.622;23.194;2024-02-26T00:33:05;90812.34;;;18.72;48.22
5952;BME280;3001;42.622;23.194;2024-02-26T00:35:33;90814.63;;;18.73;48.40
5952;BME280;3001;42.622;23.194;2024-02-26T00:38:00;90810.31;;;18.58;48.22
5952;BME280;3001;42.622;23.194;2024-02-26T00:40:28;90810.38;;;18.65;47.35
5952;BME280;3001;42.622;23.194;2024-02-26T00:42:55;90801.25;;;18.52;47.61
5952;BME280;3001;42.622;23.194;2024-02-26T00:45:22;90799.72;;;18.51;47.85
5952;BME280;3001;42.622;23.194;2024-02-26T00:47:48;90798.63;;;18.56;48.10
5952;BME280;3001;42.622;23.194;2024-02-26T00:50:15;90802.34;;;18.51;48.18
5952;BME280;3001;42.622;23.194;2024-02-26T00:52:43;90802.78;;;18.57;48.38
5952;BME280;3001;42.622;23.194;2024-02-26T00:55:10;90793.47;;;18.63;48.41
5952;BME280;3001;42.622;23.194;2024-02-26T00:57:37;90787.75;;;18.57;48.71
5952;BME280;3001;42.622;23.194;2024-02-26T01:00:06;90786.78;;;18.72;48.87
5952;BME280;3001;42.622;23.194;2024-02-26T01:02:34;90781.25;;;18.84;48.24
5952;BME280;3001;42.622;23.194;2024-02-26T01:05:00;90782.09;;;18.92;48.01
5952;BME280;3001;42.622;23.194;2024-02-26T01:07:28;90779.50;;;18.99;47.95
5952;BME280;3001;42.622;23.194;2024-02-26T01:10:00;90774.69;;;19.04;48.16
5952;BME280;3001;42.622;23.194;2024-02-26T01:12:26;90779.94;;;19.01;48.28
5952;BME280;3001;42.622;23.194;2024-02-26T01:14:53;90781.72;;;18.93;47.98
5952;BME280;3001;42.622;23.194;2024-02-26T01:17:20;90779.78;;;18.87;47.58
5952;BME280;3001;42.622;23.194;2024-02-26T01:19:46;90772.94;;;18.79;47.98
5952;BME280;3001;42.622;23.194;2024-02-26T01:22:13;90767.28;;;18.77;48.19
5952;BME280;3001;42.622;23.194;2024-02-26T01:24:40;90763.47;;;18.71;48.48
5952;BME280;3001;42.622;23.194;2024-02-26T01:27:08;90761.94;;;18.70;48.89
5952;BME280;3001;42.622;23.194;2024-02-26T01:29:35;90757.19;;;18.82;48.68
5952;BME280;3001;42.622;23.194;2024-02-26T01:32:01;90755.03;;;18.95;48.72
5952;BME280;3001;42.622;23.194;2024-02-26T01:34:30;90759.56;;;18.94;48.82
5952;BME280;3001;42.622;23.194;2024-02-26T01:36:57;90771.69;;;19.06;48.43
5952;BME280;3001;42.622;23.194;2024-02-26T01:39:23;90767.69;;;19.19;47.94
5952;BME280;3001;42.622;23.194;2024-02-26T01:41:50;90754.81;;;19.10;47.84
5952;BME280;3001;42.622;23.194;2024-02-26T01:44:18;90764.22;;;19.11;47.96
5952;BME280;3001;42.622;23.194;2024-02-26T01:46:45;90758.97;;;19.15;47.80
5952;BME280;3001;42.622;23.194;2024-02-26T01:49:12;90752.91;;;19.11;47.84
5952;BME280;3001;42.622;23.194;2024-02-26T01:51:39;90763.22;;;19.23;47.88
5952;BME280;3001;42.622;23.194;2024-02-26T01:54:08;90756.06;;;19.23;48.51
5952;BME280;3001;42.622;23.194;2024-02-26T01:56:36;90758.22;;;19.14;47.84
5952;BME280;3001;42.622;23.194;2024-02-26T01:59:05;90756.81;;;18.84;48.33
5952;BME280;3001;42.622;23.194;2024-02-26T02:01:34;90765.41;;;18.77;48.63
5952;BME280;3001;42.622;23.194;2024-02-26T02:04:01;90759.38;;;18.77;48.64
5952;BME280;3001;42.622;23.194;2024-02-26T02:06:28;90751.63;;;18.91;48.82
5952;BME280;3001;42.622;23.194;2024-02-26T02:08:55;90760.63;;;18.90;48.70
5952;BME280;3001;42.622;23.194;2024-02-26T02:11:22;90758.34;;;18.88;48.04
5952;BME280;3001;42.622;23.194;2024-02-26T02:13:48;90754.63;;;18.89;48.18
5952;BME280;3001;42.622;23.194;2024-02-26T02:16:15;90746.94;;;18.74;48.70
5952;BME280;3001;42.622;23.194;2024-02-26T02:18:43;90750.50;;;18.92;48.53
5952;BME280;3001;42.622;23.194;2024-02-26T02:21:12;90749.81;;;18.98;48.05
5952;BME280;3001;42.622;23.194;2024-02-26T02:23:38;90742.97;;;18.90;48.10
5952;BME280;3001;42.622;23.194;2024-02-26T02:26:05;90751.22;;;18.89;48.29
5952;BME280;3001;42.622;23.194;2024-02-26T02:28:32;90755.81;;;18.95;48.35
5952;BME280;3001;42.622;23.194;2024-02-26T02:30:59;90746.78;;;18.96;48.30
5952;BME280;3001;42.622;23.194;2024-02-26T02:33:26;90745.19;;;18.88;47.89
5952;BME280;3001;42.622;23.194;2024-02-26T02:35:53;90751.56;;;18.84;47.94
5952;BME280;3001;42.622;23.194;2024-02-26T02:38:22;90761.41;;;18.94;47.51
5952;BME280;3001;42.622;23.194;2024-02-26T02:40:51;90754.00;;;19.06;47.20
5952;BME280;3001;42.622;23.194;2024-02-26T02:43:18;90759.25;;;19.03;47.58
5952;BME280;3001;42.622;23.194;2024-02-26T02:45:44;90753.91;;;18.92;48.00
5952;BME280;3001;42.622;23.194;2024-02-26T02:48:11;90755.31;;;19.23;47.17
5952;BME280;3001;42.622;23.194;2024-02-26T02:50:38;90764.03;;;19.30;47.09
5952;BME280;3001;42.622;23.194;2024-02-26T02:53:04;90760.00;;;19.46;46.41
5952;BME280;3001;42.622;23.194;2024-02-26T02:55:33;90752.03;;;19.39;46.72
5952;BME280;3001;42.622;23.194;2024-02-26T02:57:59;90762.22;;;19.41;47.18
5952;BME280;3001;42.622;23.194;2024-02-26T03:00:26;90754.66;;;19.39;46.83
5952;BME280;3001;42.622;23.194;2024-02-26T03:02:53;90759.97;;;19.43;46.34
5952;BME280;3001;42.622;23.194;2024-02-26T03:05:19;90754.19;;;19.24;46.87
5952;BME280;3001;42.622;23.194;2024-02-26T03:07:46;90756.25;;;19.01;47.42
5952;BME280;3001;42.622;23.194;2024-02-26T03:10:13;90756.63;;;19.06;47.35
5952;BME280;3001;42.622;23.194;2024-02-26T03:12:41;90764.72;;;19.27;47.04
5952;BME280;3001;42.622;23.194;2024-02-26T03:15:09;90762.19;;;19.34;46.99
5952;BME280;3001;42.622;23.194;2024-02-26T03:17:37;90770.91;;;19.45;46.88
5952;BME280;3001;42.622;23.194;2024-02-26T03:20:05;90764.84;;;19.41;46.63
5952;BME280;3001;42.622;23.194;2024-02-26T03:22:33;90766.53;;;19.66;45.85
5952;BME280;3001;42.622;23.194;2024-02-26T03:25:00;90754.91;;;19.71;46.05
5952;BME280;3001;42.622;23.194;2024-02-26T03:27:27;90757.13;;;19.65;45.77
5952;BME280;3001;42.622;23.194;2024-02-26T03:29:55;90759.31;;;19.53;46.24
5952;BME280;3001;42.622;23.194;2024-02-26T03:32:22;90743.03;;;19.40;45.98
5952;BME280;3001;42.622;23.194;2024-02-26T03:34:48;90740.06;;;19.45;46.48
5952;BME280;3001;42.622;23.194;2024-02-26T03:37:15;90744.91;;;19.40;46.47
5952;BME280;3001;42.622;23.194;2024-02-26T03:39:42;90749.03;;;19.41;46.34
5952;BME280;3001;42.622;23.194;2024-02-26T03:42:08;90739.97;;;19.35;46.10
5952;BME280;3001;42.622;23.194;2024-02-26T03:44:35;90749.34;;;19.32;46.22
5952;BME280;3001;42.622;23.194;2024-02-26T03:47:03;90737.13;;;19.11;46.92
5952;BME280;3001;42.622;23.194;2024-02-26T03:49:30;90728.19;;;19.19;46.96
5952;BME280;3001;42.622;23.194;2024-02-26T03:51:57;90731.13;;;19.14;46.84
5952;BME280;3001;42.622;23.194;2024-02-26T03:54:23;90734.22;;;19.19;46.98
5952;BME280;3001;42.622;23.194;2024-02-26T03:56:50;90728.84;;;19.09;46.99
5952;BME280;3001;42.622;23.194;2024-02-26T03:59:17;90723.19;;;19.07;47.16
5952;BME280;3001;42.622;23.194;2024-02-26T04:01:45;90726.03;;;19.34;46.51
5952;BME280;3001;42.622;23.194;2024-02-26T04:04:13;90728.63;;;19.27;46.70
5952;BME280;3001;42.622;23.194;2024-02-26T04:06:44;90715.44;;;19.21;47.13
5952;BME280;3001;42.622;23.194;2024-02-26T04:09:11;90719.34;;;19.44;46.47
5952;BME280;3001;42.622;23.194;2024-02-26T04:11:37;90725.75;;;19.50;46.20
5952;BME280;3001;42.622;23.194;2024-02-26T04:14:04;90726.81;;;19.38;46.43
5952;BME280;3001;42.622;23.194;2024-02-26T04:16:34;90715.66;;;19.59;45.85
5952;BME280;3001;42.622;23.194;2024-02-26T04:19:00;90708.91;;;19.61;45.79
5952;BME280;3001;42.622;23.194;2024-02-26T04:21:29;90714.91;;;19.58;46.09
5952;BME280;3001;42.622;23.194;2024-02-26T04:23:55;90714.50;;;19.56;45.86
5952;BME280;3001;42.622;23.194;2024-02-26T04:26:22;90715.50;;;19.34;46.30
5952;BME280;3001;42.622;23.194;2024-02-26T04:28:48;90716.00;;;19.50;46.09
5952;BME280;3001;42.622;23.194;2024-02-26T04:31:15;90717.13;;;19.49;46.15
5952;BME280;3001;42.622;23.194;2024-02-26T04:33:42;90717.91;;;19.60;46.24
5952;BME280;3001;42.622;23.194;2024-02-26T04:36:13;90723.91;;;19.50;45.84
5952;BME280;3001;42.622;23.194;2024-02-26T04:38:41;90726.25;;;19.66;45.49
5952;BME280;3001;42.622;23.194;2024-02-26T04:41:08;90722.16;;;19.72;45.23
5952;BME280;3001;42.622;23.194;2024-02-26T04:43:35;90724.44;;;19.80;45.10
5952;BME280;3001;42.622;23.194;2024-02-26T04:46:06;90719.50;;;19.75;44.80
5952;BME280;3001;42.622;23.194;2024-02-26T04:48:33;90721.75;;;19.66;44.95
5952;BME280;3001;42.622;23.194;2024-02-26T04:51:00;90716.88;;;19.72;44.55
5952;BME280;3001;42.622;23.194;2024-02-26T04:53:27;90724.38;;;19.70;44.71
5952;BME280;3001;42.622;23.194;2024-02-26T04:55:55;90723.59;;;19.66;45.11
5952;BME280;3001;42.622;23.194;2024-02-26T04:58:21;90720.97;;;19.62;44.60
5952;BME280;3001;42.622;23.194;2024-02-26T05:00:48;90717.22;;;19.67;44.92
5952;BME280;3001;42.622;23.194;2024-02-26T05:03:15;90712.66;;;19.60;44.70
5952;BME280;3001;42.622;23.194;2024-02-26T05:05:42;90733.31;;;19.51;44.60
5952;BME280;3001;42.622;23.194;2024-02-26T05:08:09;90734.44;;;19.50;44.26
5952;BME280;3001;42.622;23.194;2024-02-26T05:10:37;90735.91;;;19.44;44.58
5952;BME280;3001;42.622;23.194;2024-02-26T05:13:07;90740.81;;;19.49;44.51
5952;BME280;3001;42.622;23.194;2024-02-26T05:15:34;90740.84;;;19.53;45.25
5952;BME280;3001;42.622;23.194;2024-02-26T05:18:01;90741.91;;;19.41;45.53
5952;BME280;3001;42.622;23.194;2024-02-26T05:20:28;90743.75;;;19.34;45.47
5952;BME280;3001;42.622;23.194;2024-02-26T05:22:55;90747.91;;;19.42;45.19
5952;BME280;3001;42.622;23.194;2024-02-26T05:25:23;90754.94;;;19.21;45.90
5952;BME280;3001;42.622;23.194;2024-02-26T05:27:49;90756.44;;;19.22;46.05
5952;BME280;3001;42.622;23.194;2024-02-26T05:30:18;90758.88;;;19.04;46.82
5952;BME280;3001;42.622;23.194;2024-02-26T05:32:44;90758.44;;;18.95;47.74
5952;BME280;3001;42.622;23.194;2024-02-26T05:35:11;90755.56;;;19.11;48.05
5952;BME280;3001;42.622;23.194;2024-02-26T05:37:38;90757.75;;;19.05;49.03
5952;BME280;3001;42.622;23.194;2024-02-26T05:40:06;90754.19;;;19.24;49.11
5952;BME280;3001;42.622;23.194;2024-02-26T05:42:32;90756.09;;;19.27;49.36
5952;BME280;3001;42.622;23.194;2024-02-26T05:44:59;90765.47;;;19.21;49.65
5952;BME280;3001;42.622;23.194;2024-02-26T05:47:32;90765.84;;;19.26;49.70
5952;BME280;3001;42.622;23.194;2024-02-26T05:49:59;90757.31;;;19.39;49.55
5952;BME280;3001;42.622;23.194;2024-02-26T05:52:26;90760.38;;;19.48;49.46
5952;BME280;3001;42.622;23.194;2024-02-26T05:54:53;90764.97;;;19.58;49.17
5952;BME280;3001;42.622;23.194;2024-02-26T05:57:19;90771.56;;;19.85;48.58
5952;BME280;3001;42.622;23.194;2024-02-26T05:59:46;90772.22;;;19.72;49.18
5952;BME280;3001;42.622;23.194;2024-02-26T06:02:13;90767.72;;;19.76;49.08
5952;BME280;3001;42.622;23.194;2024-02-26T06:04:41;90775.28;;;19.81;49.19
5952;BME280;3001;42.622;23.194;2024-02-26T06:07:08;90771.22;;;19.97;48.62
5952;BME280;3001;42.622;23.194;2024-02-26T06:09:34;90773.97;;;20.11;48.61
5952;BME280;3001;42.622;23.194;2024-02-26T06:12:01;90774.38;;;20.20;48.17
5952;BME280;3001;42.622;23.194;2024-02-26T06:14:28;90770.19;;;20.09;48.43
5952;BME280;3001;42.622;23.194;2024-02-26T06:16:54;90778.09;;;20.09;48.59
5952;BME280;3001;42.622;23.194;2024-02-26T06:19:21;90772.06;;;20.08;48.37
5952;BME280;3001;42.622;23.194;2024-02-26T06:21:49;90773.19;;;20.04;48.60
5952;BME280;3001;42.622;23.194;2024-02-26T06:24:16;90771.72;;;20.13;48.62
5952;BME280;3001;42.622;23.194;2024-02-26T06:26:43;90774.78;;;20.26;48.40
5952;BME280;3001;42.622;23.194;2024-02-26T06:29:09;90773.28;;;20.32;48.14
5952;BME280;3001;42.622;23.194;2024-02-26T06:31:36;90776.28;;;20.27;48.40
5952;BME280;3001;42.622;23.194;2024-02-26T06:34:03;90777.41;;;20.19;48.68
5952;BME280;3001;42.622;23.194;2024-02-26T06:36:30;90778.19;;;20.30;48.40
5952;BME280;3001;42.622;23.194;2024-02-26T06:38:59;90780.84;;;20.33;48.25
5952;BME280;3001;42.622;23.194;2024-02-26T06:41:26;90774.44;;;20.34;48.14
5952;BME280;3001;42.622;23.194;2024-02-26T06:43:55;90779.00;;;20.41;48.27
5952;BME280;3001;42.622;23.194;2024-02-26T06:46:21;90774.47;;;20.41;48.55
5952;BME280;3001;42.622;23.194;2024-02-26T06:48:49;90780.88;;;20.37;48.62
5952;BME280;3001;42.622;23.194;2024-02-26T06:51:15;90784.59;;;20.25;48.50
5952;BME280;3001;42.622;23.194;2024-02-26T06:53:42;90783.16;;;20.45;47.54
5952;BME280;3001;42.622;23.194;2024-02-26T06:56:10;90784.63;;;20.39;47.87
5952;BME280;3001;42.622;23.194;2024-02-26T06:58:37;90784.31;;;20.51;47.79
5952;BME280;3001;42.622;23.194;2024-02-26T07:01:03;90781.31;;;20.53;47.84
5952;BME280;3001;42.622;23.194;2024-02-26T07:03:30;90785.88;;;20.66;47.72
5952;BME280;3001;42.622;23.194;2024-02-26T07:05:58;90788.53;;;20.73;47.68
5952;BME280;3001;42.622;23.194;2024-02-26T07:08:24;90789.25;;;20.60;47.94
5952;BME280;3001;42.622;23.194;2024-02-26T07:10:51;90790.34;;;20.55;48.02
5952;BME280;3001;42.622;23.194;2024-02-26T07:13:19;90799.41;;;20.54;48.20
5952;BME280;3001;42.622;23.194;2024-02-26T07:15:46;90801.34;;;20.64;48.00
5952;BME280;3001;42.622;23.194;2024-02-26T07:18:13;90800.59;;;20.81;47.22
5952;BME280;3001;42.622;23.194;2024-02-26T07:20:39;90805.16;;;20.81;47.39
5952;BME280;3001;42.622;23.194;2024-02-26T07:23:06;90806.34;;;20.90;46.98
5952;BME280;3001;42.622;23.194;2024-02-26T07:25:33;90812.75;;;20.96;47.12
5952;BME280;3001;42.622;23.194;2024-02-26T07:27:59;90818.41;;;20.91;46.78
5952;BME280;3001;42.622;23.194;2024-02-26T07:30:27;90801.06;;;21.01;46.81
5952;BME280;3001;42.622;23.194;2024-02-26T07:32:54;90812.41;;;21.15;46.53
5952;BME280;3001;42.622;23.194;2024-02-26T07:35:22;90810.88;;;21.04;46.83
5952;BME280;3001;42.622;23.194;2024-02-26T07:37:48;90816.56;;;21.09;46.84
5952;BME280;3001;42.622;23.194;2024-02-26T07:40:16;90820.31;;;21.05;46.46
5952;BME280;3001;42.622;23.194;2024-02-26T07:42:42;90820.31;;;21.01;46.19
5952;BME280;3001;42.622;23.194;2024-02-26T07:45:10;90815.81;;;21.05;46.47
5952;BME280;3001;42.622;23.194;2024-02-26T07:47:38;90813.91;;;21.16;46.41
5952;BME280;3001;42.622;23.194;2024-02-26T07:50:07;90818.13;;;21.41;45.62
5952;BME280;3001;42.622;23.194;2024-02-26T07:52:34;90808.66;;;21.37;45.37
5952;BME280;3001;42.622;23.194;2024-02-26T07:55:00;90807.53;;;21.41;45.40
5952;BME280;3001;42.622;23.194;2024-02-26T07:57:27;90809.78;;;21.36;45.26
5952;BME280;3001;42.622;23.194;2024-02-26T07:59:54;90816.97;;;21.25;45.60
5952;BME280;3001;42.622;23.194;2024-02-26T08:02:21;90807.53;;;21.27;45.18
5952;BME280;3001;42.622;23.194;2024-02-26T08:04:49;90807.16;;;21.39;45.39
5952;BME280;3001;42.622;23.194;2024-02-26T08:07:16;90806.75;;;21.30;46.16
5952;BME280;3001;42.622;23.194;2024-02-26T08:09:43;90807.94;;;21.47;45.53
5952;BME280;3001;42.622;23.194;2024-02-26T08:12:09;90807.91;;;21.26;45.87
5952;BME280;3001;42.622;23.194;2024-02-26T08:14:36;90798.81;;;20.96;46.48
5952;BME280;3001;42.622;23.194;2024-02-26T08:17:03;90807.13;;;21.11;46.35
5952;BME280;3001;42.622;23.194;2024-02-26T08:19:30;90800.72;;;21.23;46.10
5952;BME280;3001;42.622;23.194;2024-02-26T08:21:58;90794.34;;;21.45;45.89
5952;BME280;3001;42.622;23.194;2024-02-26T08:24:24;90802.66;;;21.89;44.84
5952;BME280;3001;42.622;23.194;2024-02-26T08:26:51;90796.22;;;21.86;44.74
5952;BME280;3001;42.622;23.194;2024-02-26T08:29:18;90794.34;;;21.83;44.89
5952;BME280;3001;42.622;23.194;2024-02-26T08:31:44;90799.25;;;21.88;44.72
5952;BME280;3001;42.622;23.194;2024-02-26T08:34:11;90802.66;;;21.89;45.07
5952;BME280;3001;42.622;23.194;2024-02-26T08:36:38;90808.69;;;21.96;45.28
5952;BME280;3001;42.622;23.194;2024-02-26T08:39:06;90801.47;;;22.04;45.08
5952;BME280;3001;42.622;23.194;2024-02-26T08:41:34;90796.97;;;21.97;44.81
5952;BME280;3001;42.622;23.194;2024-02-26T08:44:01;90804.13;;;21.93;45.22
5952;BME280;3001;42.622;23.194;2024-02-26T08:46:27;90807.53;;;22.01;45.33
5952;BME280;3001;42.622;23.194;2024-02-26T08:48:54;90809.72;;;22.34;44.65
5952;BME280;3001;42.622;23.194;2024-02-26T08:51:20;90802.19;;;22.39;44.63
5952;BME280;3001;42.622;23.194;2024-02-26T08:53:47;90806.31;;;22.33;44.58
5952;BME280;3001;42.622;23.194;2024-02-26T08:56:16;90803.66;;;22.47;44.34
5952;BME280;3001;42.622;23.194;2024-02-26T08:58:43;90800.28;;;22.43;44.71
5952;BME280;3001;42.622;23.194;2024-02-26T09:01:11;90808.22;;;22.33;44.75
5952;BME280;3001;42.622;23.194;2024-02-26T09:03:38;90798.41;;;22.40;44.73
5952;BME280;3001;42.622;23.194;2024-02-26T09:06:05;90797.19;;;22.59;44.54
5952;BME280;3001;42.622;23.194;2024-02-26T09:08:32;90795.41;;;22.24;44.88
5952;BME280;3001;42.622;23.194;2024-02-26T09:11:01;90792.72;;;22.45;44.70
5952;BME280;3001;42.622;23.194;2024-02-26T09:13:30;90795.00;;;22.40;44.89
5952;BME280;3001;42.622;23.194;2024-02-26T09:15:56;90794.22;;;22.36;45.19
5952;BME280;3001;42.622;23.194;2024-02-26T09:18:24;90787.44;;;22.38;45.22
5952;BME280;3001;42.622;23.194;2024-02-26T09:20:50;90801.44;;;22.39;45.36
5952;BME280;3001;42.622;23.194;2024-02-26T09:23:17;90791.94;;;22.34;45.59
5952;BME280;3001;42.622;23.194;2024-02-26T09:25:44;90793.50;;;22.18;45.89
5952;BME280;3001;42.622;23.194;2024-02-26T09:28:11;90785.94;;;22.20;45.70
5952;BME280;3001;42.622;23.194;2024-02-26T09:30:39;90780.28;;;22.21;45.29
5952;BME280;3001;42.622;23.194;2024-02-26T09:33:05;90785.50;;;22.49;44.87
5952;BME280;3001;42.622;23.194;2024-02-26T09:35:32;90789.97;;;22.70;44.21
5952;BME280;3001;42.622;23.194;2024-02-26T09:37:59;90787.69;;;22.72;43.86
5952;BME280;3001;42.622;23.194;2024-02-26T09:40:26;90783.44;;;22.85;44.17
5952;BME280;3001;42.622;23.194;2024-02-26T09:42:59;90785.72;;;22.86;43.89
5952;BME280;3001;42.622;23.194;2024-02-26T09:45:28;90778.16;;;22.88;43.87
5952;BME280;3001;42.622;23.194;2024-02-26T09:47:57;90782.28;;;22.92;43.85
5952;BME280;3001;42.622;23.194;2024-02-26T09:50:24;90786.84;;;22.89;43.50
5952;BME280;3001;42.622;23.194;2024-02-26T09:52:51;90789.50;;;22.85;43.74
5952;BME280;3001;42.622;23.194;2024-02-26T09:55:18;90784.94;;;22.92;43.88
5952;BME280;3001;42.622;23.194;2024-02-26T09:57:46;90752.81;;;22.84;43.67
5952;BME280;3001;42.622;23.194;2024-02-26T10:00:17;90784.16;;;22.95;43.56
5952;BME280;3001;42.622;23.194;2024-02-26T10:02:45;90780.00;;;22.94;43.75
5952;BME280;3001;42.622;23.194;2024-02-26T10:05:14;90782.66;;;22.94;43.82
5952;BME280;3001;42.622;23.194;2024-02-26T10:07:44;90773.47;;;23.13;43.48
5952;BME280;3001;42.622;23.194;2024-02-26T10:10:11;90785.25;;;23.05;43.27
5952;BME280;3001;42.622;23.194;2024-02-26T10:12:37;90779.91;;;23.15;42.66
5952;BME280;3001;42.622;23.194;2024-02-26T10:15:04;90774.56;;;23.22;42.81
5952;BME280;3001;42.622;23.194;2024-02-26T10:17:31;90778.41;;;23.14;43.08
5952;BME280;3001;42.622;23.194;2024-02-26T10:20:11;90773.50;;;23.06;43.00
5952;BME280;3001;42.622;23.194;2024-02-26T10:22:39;90765.16;;;23.14;42.71
5952;BME280;3001;42.622;23.194;2024-02-26T10:25:07;90766.59;;;23.22;42.80
5952;BME280;3001;42.622;23.194;2024-02-26T10:27:34;90777.41;;;22.81;43.26
5952;BME280;3001;42.622;23.194;2024-02-26T10:30:03;90764.41;;;23.03;43.07
5952;BME280;3001;42.622;23.194;2024-02-26T10:32:30;90762.72;;;23.37;42.36
5952;BME280;3001;42.622;23.194;2024-02-26T10:34:57;90753.34;;;23.26;42.31
5952;BME280;3001;42.622;23.194;2024-02-26T10:37:23;90754.78;;;23.34;41.51
5952;BME280;3001;42.622;23.194;2024-02-26T10:39:51;90759.41;;;23.23;41.99
5952;BME280;3001;42.622;23.194;2024-02-26T10:42:18;90749.25;;;23.14;42.17
5952;BME280;3001;42.622;23.194;2024-02-26T10:44:45;90747.69;;;23.24;41.81
5952;BME280;3001;42.622;23.194;2024-02-26T10:47:14;90741.75;;;23.53;40.92
5952;BME280;3001;42.622;23.194;2024-02-26T10:49:45;90748.06;;;23.66;40.75
5952;BME280;3001;42.622;23.194;2024-02-26T10:52:13;90745.13;;;24.01;40.08
5952;BME280;3001;42.622;23.194;2024-02-26T10:54:41;90745.94;;;23.98;39.63
5952;BME280;3001;42.622;23.194;2024-02-26T10:57:11;90742.88;;;24.00;39.63
5952;BME280;3001;42.622;23.194;2024-02-26T10:59:39;90737.06;;;24.12;39.74
5952;BME280;3001;42.622;23.194;2024-02-26T11:02:08;90743.06;;;24.19;39.36
5952;BME280;3001;42.622;23.194;2024-02-26T11:04:36;90738.19;;;24.14;39.28
5952;BME280;3001;42.622;23.194;2024-02-26T11:07:04;90740.16;;;24.40;38.90
5952;BME280;3001;42.622;23.194;2024-02-26T11:09:32;90748.38;;;24.19;39.20
5952;BME280;3001;42.622;23.194;2024-02-26T11:11:59;90744.44;;;24.31;38.57
5952;BME280;3001;42.622;23.194;2024-02-26T11:14:29;90745.28;;;24.58;37.71
5952;BME280;3001;42.622;23.194;2024-02-26T11:16:57;90745.47;;;24.40;37.91
5952;BME280;3001;42.622;23.194;2024-02-26T11:19:25;90744.88;;;24.63;37.32
5952;BME280;3001;42.622;23.194;2024-02-26T11:21:53;90743.13;;;24.46;37.78
5952;BME280;3001;42.622;23.194;2024-02-26T11:24:19;90745.00;;;24.49;37.62
5952;BME280;3001;42.622;23.194;2024-02-26T11:26:50;90739.34;;;24.47;37.54
5952;BME280;3001;42.622;23.194;2024-02-26T11:29:27;90745.78;;;24.46;37.48
5952;BME280;3001;42.622;23.194;2024-02-26T11:31:54;90742.69;;;24.54;37.41
5952;BME280;3001;42.622;23.194;2024-02-26T11:34:21;90738.47;;;24.86;36.64
5952;BME280;3001;42.622;23.194;2024-02-26T11:36:49;90742.78;;;24.77;36.72
5952;BME280;3001;42.622;23.194;2024-02-26T11:39:15;90741.53;;;24.85;35.95
5952;BME280;3001;42.622;23.194;2024-02-26T11:41:42;90737.38;;;24.84;35.36
5952;BME280;3001;42.622;23.194;2024-02-26T11:44:09;90740.94;;;25.00;35.88
5952;BME280;3001;42.622;23.194;2024-02-26T11:46:40;90740.75;;;25.14;35.88
5952;BME280;3001;42.622;23.194;2024-02-26T11:49:31;90735.03;;;24.89;36.52
5952;BME280;3001;42.622;23.194;2024-02-26T11:51:58;90737.50;;;25.03;36.19
5952;BME280;3001;42.622;23.194;2024-02-26T11:54:53;90734.31;;;25.12;34.83
5952;BME280;3001;42.622;23.194;2024-02-26T11:57:30;90734.63;;;25.17;35.12
5952;BME280;3001;42.622;23.194;2024-02-26T12:00:11;90734.09;;;25.29;34.91
5952;BME280;3001;42.622;23.194;2024-02-26T12:02:43;90732.38;;;25.42;34.73
5952;BME280;3001;42.622;23.194;2024-02-26T12:05:11;90730.44;;;25.46;35.53
5952;BME280;3001;42.622;23.194;2024-02-26T12:07:40;90732.31;;;25.46;35.77
5952;BME280;3001;42.622;23.194;2024-02-26T12:10:15;90733.25;;;25.59;35.88
5952;BME280;3001;42.622;23.194;2024-02-26T12:12:44;90740.81;;;25.60;35.78
5952;BME280;3001;42.622;23.194;2024-02-26T12:15:11;90745.63;;;25.69;35.29
5952;BME280;3001;42.622;23.194;2024-02-26T12:17:38;90736.91;;;25.68;35.44
5952;BME280;3001;42.622;23.194;2024-02-26T12:20:10;90741.63;;;25.84;35.21
5952;BME280;3001;42.622;23.194;2024-02-26T12:22:39;90734.59;;;25.70;35.02
5952;BME280;3001;42.622;23.194;2024-02-26T12:25:08;90733.47;;;25.45;35.66
5952;BME280;3001;42.622;23.194;2024-02-26T12:27:35;90745.53;;;25.53;34.72
5952;BME280;3001;42.622;23.194;2024-02-26T12:30:02;90748.28;;;25.69;35.33
5952;BME280;3001;42.622;23.194;2024-02-26T12:32:29;90754.88;;;25.87;34.70
5952;BME280;3001;42.622;23.194;2024-02-26T12:34:57;90746.88;;;25.64;34.92
5952;BME280;3001;42.622;23.194;2024-02-26T12:37:25;90753.22;;;25.70;34.78
5952;BME280;3001;42.622;23.194;2024-02-26T12:39:52;90746.97;;;25.57;34.51
5952;BME280;3001;42.622;23.194;2024-02-26T12:42:19;90753.84;;;25.55;34.56
5952;BME280;3001;42.622;23.194;2024-02-26T12:44:46;90751.53;;;25.57;34.69
5952;BME280;3001;42.622;23.194;2024-02-26T12:47:13;90754.03;;;25.67;34.55
5952;BME280;3001;42.622;23.194;2024-02-26T12:49:42;90743.44;;;25.64;33.99
5952;BME280;3001;42.622;23.194;2024-02-26T12:52:10;90748.13;;;25.56;34.81
5952;BME280;3001;42.622;23.194;2024-02-26T12:54:38;90749.56;;;25.38;35.21
5952;BME280;3001;42.622;23.194;2024-02-26T12:57:08;90747.47;;;25.49;33.66
5952;BME280;3001;42.622;23.194;2024-02-26T12:59:35;90742.59;;;25.17;34.03
5952;BME280;3001;42.622;23.194;2024-02-26T13:02:03;90749.88;;;25.13;34.13
5952;BME280;3001;42.622;23.194;2024-02-26T13:04:31;90748.47;;;25.05;34.76
5952;BME280;3001;42.622;23.194;2024-02-26T13:06:57;90745.31;;;25.14;33.80
5952;BME280;3001;42.622;23.194;2024-02-26T13:09:32;90749.88;;;25.13;34.43
5952;BME280;3001;42.622;23.194;2024-02-26T13:12:04;90742.97;;;25.19;34.07